메인 페이지
METAR-TAF:

METAR-TAF

공항 :

키고마, 탄자니아

위도: 04-53S, 경도: 029-38E, 고도: 882m

현재 날씨관측

예보는 4 시간 9분 전, 19:00시(UTC)에 발표되었습니다.
북서5kt
온도 22°C
습도 78%
기압 1017 hPa
시정 10km 이상
1500m 미만 상공 구름 및 적란운 없음

METAR: HTKA 131900Z 32005KT CAVOK 22/18 Q1017 NOSIG

시각: 02:09 (23:09 UTC)

예보

예보는 12 시간 9분 전, 11:00시(UTC)에 발표되었습니다.
예보 대상 시간: 13일 12시부터 14일 12시까지 (UTC)
남남서8kt
시정 10km 이상
고도 2500ft 상공 구름 조금

TAF: HTKA 131100Z 1312/1412 20008KT 9999 FEW025

4,000개 이상의 공항 관측 자료 및 예보 (METAR 및 TAF 보고).

지도상에서 검색 가능한 기상관측소가 노란 점과 빨간 점으로 표시되어 있습니다.

기상관측소 명을 보려면 표시 위로 마우스를 이동하세요.

날씨 관측과 예보를 보려면 클릭하세요.

지도 변경 : 확대하려면 엑스 표시가 있는 녹색 버튼, 축소하려면 빼기 표시가 있는 녹색 버튼, 다음 페이지의 지도를 보려면 녹색 화살표를 클릭하세요.


METAR-TAF: